Lilesville, NC (28091)

5:36 AM EDT on August 31, 2015 (GMT -0400)
Anson County | | Change Station
CLOSE
Current Station
Airport
Location: Wadesboro,
Elevation: 299 ft
Nearby Weather Stations

Elev 299 ft 35.02 °N, 80.08 °W | Updated 21 minutes ago

Rain
Rain
68 °F
Feels Like 68 °F
N
0
Wind Variable Wind from North

Today
High -- | Low -- °F
--% Chance of Precip.
Yesterday
High -- | Low -- °F
Precip. -- in
6:51 AM 7:48 PM
Waning Gibbous, 96% visible
Pressure 30.08 in
Visibility 5.0 miles
Clouds Scattered Clouds 300 ft
Mostly Cloudy 1200 ft
Overcast 3800 ft
Dew Point 67 °F
Humidity 95%
Rainfall 1.97 in
Snow Depth Not available.
UV 0 out of 12
Pollen 6.50 out of 12
Air Quality Not available.
Flu Activity Not available.
METAR KAFP 310915Z AUTO 00000KT 5SM -RA SCT003 BKN012 OVC038 20/19 A3008 RMK AO2 P0007 T02000192
Pressure 30.08 in
Visibility 5.0 miles
Clouds Scattered Clouds 300 ft
Mostly Cloudy 1200 ft
Overcast 3800 ft
Dew Point 67 °F
Humidity 95%
Rainfall 1.97 in
Snow Depth Not available.
UV 0 out of 12
Pollen 6.50 out of 12
Air Quality Not available.
Flu Activity Not available.
METAR KAFP 310915Z AUTO 00000KT 5SM -RA SCT003 BKN012 OVC038 20/19 A3008 RMK AO2 P0007 T02000192

10-Day Weather Forecast

×

Almanac

Astronomy

Aug. 31, 2015 Rise Set
Actual Time
Civil Twilight
Nautical Twilight
Astronomical Twilight
Moon
Length of Visible Light
Length of Day
Tomorrow will be .
, % of the Moon is Illuminated

Today's Extremes

State Highs State Lows

Community

WunderPhotos

Upload Photos

1,851,227 photos uploaded!

WunderBlogs® & News

Nearby

Air Quality

  Air Quality AQ Index Pollutant
Not available.

Snow Depth

Station Depth Elevation

Earthquake Activity

City Distance Mag. Time & Date
Minimum magnitude displayed is 2.5.

Coastal Water Temperatures

Place Temperature

Stations

Nearby Weather Stations

Station Location Temp. Windchill Dew Point Humidity Wind Precip. Elev Updated Type